LGKL

Details ICAO LGKL (KLX)
Name KALAMATA
Region Greece
Timezone Europe/Athens (UTC+3.0)
Plans Departing 58
Arriving 71
Stats Elevation 26 ft / 8 m (AMSL)
Location 37.068320° 22.025523°
Runways 1
Magnetic Variation 4.213° E
Sunrise 2018-06-25 03:14:34 UTC / 2018-06-25 06:14:34 Local
Sunset 2018-06-25 17:56:49 UTC / 2018-06-25 20:56:49 Local
Advertisement - Login to hide

Runways

ID Width Length Bearing (true) Bearing (mag) Surface Threshold Offset Overrun Length
17R 148 ft / 45 m 9,274 ft / 2,827 m 169.51° 165.30° Asphalt 240 ft / 73 m 320 ft / 98 m
35L 148 ft / 45 m 9,274 ft / 2,827 m 349.51° 345.30° Asphalt 250 ft / 76 m 310 ft / 94 m

Map

Weather


0- 5 10 15 20 25 30 35+ Temperature / ° C

Clouds and Precipitation
Forecast for 2018-06-25 06:00 UTC. Updated 3 hours ago

Ground ~20,000 ft ~40,000 ft Winds

METAR

LGKL 250550Z 00000KT 9999 FEW020TCU SCT030 21/20 Q1012

TAF

Not found

Frequencies

Tower 122.10 MHz TWR
Approach 120.75 MHz APP
Tower 120.75 MHz TWR
Approach 122.10 MHz APP
Warning: Do not use this data for real-world aviation or navigation. No guarantee of current accuracy is given.